createdAt,value
2022-11-06T00:02:20.311Z,7.00
2022-11-06T00:05:17.070Z,5.70
2022-11-06T00:08:24.097Z,5.90
2022-11-06T00:11:30.990Z,7.10
2022-11-06T00:14:38.139Z,7.20
2022-11-06T00:17:44.643Z,7.50
2022-11-06T00:20:51.611Z,7.30
2022-11-06T00:23:58.866Z,8.30
2022-11-06T00:27:05.392Z,3.80
2022-11-06T00:30:12.706Z,6.70
2022-11-06T00:33:19.585Z,9.70
2022-11-06T00:36:26.361Z,8.30
2022-11-06T00:39:33.432Z,7.90
2022-11-06T00:42:40.354Z,7.30
2022-11-06T00:45:47.135Z,6.70
2022-11-06T00:48:53.853Z,6.50
2022-11-06T00:52:01.073Z,6.30
2022-11-06T00:55:07.889Z,5.10
2022-11-06T00:58:14.998Z,4.40
2022-11-06T01:01:22.335Z,5.90
2022-11-06T01:04:29.131Z,6.20
2022-11-06T01:07:36.069Z,7.40
2022-11-06T01:10:43.120Z,3.20
2022-11-06T01:13:49.690Z,6.10
2022-11-06T01:16:56.869Z,3.30
2022-11-06T01:20:04.152Z,6.00
2022-11-06T01:23:10.602Z,5.50
2022-11-06T01:26:33.878Z,7.90
2022-11-06T01:29:22.074Z,7.10
2022-11-06T01:32:28.607Z,8.80
2022-11-06T01:35:35.984Z,8.90
2022-11-06T01:38:42.424Z,8.20
2022-11-06T01:41:43.017Z,5.30
2022-11-06T01:44:50.166Z,7.00
2022-11-06T01:47:56.577Z,6.60
2022-11-06T01:51:03.867Z,8.30
2022-11-06T01:54:10.843Z,7.20
2022-11-06T01:57:18.639Z,7.10
2022-11-06T02:00:25.537Z,7.30
2022-11-06T02:03:32.401Z,6.20
2022-11-06T02:06:40.178Z,5.90
2022-11-06T02:09:46.583Z,6.00
2022-11-06T02:12:53.590Z,7.50
2022-11-06T02:16:00.290Z,6.20
2022-11-06T02:19:07.018Z,4.40
2022-11-06T02:22:14.013Z,5.60
2022-11-06T02:25:20.952Z,6.80
2022-11-06T02:28:27.552Z,4.00
2022-11-06T02:31:34.763Z,5.30
2022-11-06T02:34:41.323Z,8.00
2022-11-06T02:37:48.503Z,4.60
2022-11-06T02:40:55.753Z,5.20
2022-11-06T02:44:02.502Z,6.40
2022-11-06T02:47:09.249Z,5.90
2022-11-06T02:50:16.043Z,6.90
2022-11-06T02:53:23.025Z,7.20
2022-11-06T02:56:29.900Z,7.20
2022-11-06T02:59:36.777Z,5.40
2022-11-06T03:02:43.825Z,6.30
2022-11-06T03:05:50.728Z,7.80
2022-11-06T03:08:57.838Z,9.90
2022-11-06T03:12:04.674Z,12.10
2022-11-06T03:15:11.620Z,8.00
2022-11-06T03:18:19.024Z,8.00
2022-11-06T03:21:25.548Z,8.20
2022-11-06T03:24:32.662Z,4.70
2022-11-06T03:27:39.960Z,7.90
2022-11-06T03:30:46.451Z,5.60
2022-11-06T03:33:53.801Z,8.30
2022-11-06T03:37:00.534Z,4.30
2022-11-06T03:40:07.243Z,6.50
2022-11-06T03:43:14.224Z,6.50
2022-11-06T03:46:20.990Z,5.90
2022-11-06T03:49:27.843Z,7.20
2022-11-06T03:52:34.826Z,7.20
2022-11-06T03:55:41.686Z,6.40
2022-11-06T03:58:48.545Z,5.20
2022-11-06T04:01:55.461Z,6.50
2022-11-06T04:05:02.498Z,6.60
2022-11-06T04:08:09.693Z,5.80
2022-11-06T04:11:16.581Z,6.90
2022-11-06T04:14:23.311Z,8.60
2022-11-06T04:17:30.354Z,12.50
2022-11-06T04:20:37.498Z,8.30
2022-11-06T04:23:44.281Z,6.20
2022-11-06T04:26:51.112Z,5.40
2022-11-06T04:29:58.362Z,7.20
2022-11-06T04:33:04.794Z,5.70
2022-11-06T04:36:11.916Z,7.10
2022-11-06T04:39:18.687Z,8.00
2022-11-06T04:42:25.438Z,7.30
2022-11-06T04:45:32.356Z,7.90
2022-11-06T04:48:39.178Z,5.50
2022-11-06T04:51:45.890Z,8.30
2022-11-06T04:54:52.751Z,8.20
2022-11-06T04:57:59.631Z,6.60
2022-11-06T05:01:06.435Z,8.20
2022-11-06T05:04:13.268Z,8.20
2022-11-06T05:07:20.141Z,7.70
2022-11-06T05:10:27.461Z,9.40
2022-11-06T05:13:34.341Z,6.90
2022-11-06T05:16:41.273Z,6.80
2022-11-06T05:19:48.100Z,7.30
2022-11-06T05:22:55.352Z,6.00
2022-11-06T05:26:02.254Z,6.60
2022-11-06T05:29:09.281Z,8.50
2022-11-06T05:32:16.474Z,8.50
2022-11-06T05:35:23.204Z,7.70
2022-11-06T05:38:30.035Z,12.70
2022-11-06T05:41:37.166Z,9.60
2022-11-06T05:44:43.718Z,8.70
2022-11-06T05:47:50.987Z,10.90
2022-11-06T05:50:58.167Z,4.80
2022-11-06T05:54:04.662Z,11.60
2022-11-06T05:57:11.911Z,8.90
2022-11-06T06:00:19.099Z,11.60
2022-11-06T06:03:25.688Z,8.90
2022-11-06T06:06:33.490Z,8.40
2022-11-06T06:09:40.550Z,8.10
2022-11-06T06:12:47.490Z,7.90
2022-11-06T06:15:54.683Z,10.00
2022-11-06T06:19:01.643Z,8.20
2022-11-06T06:22:08.537Z,8.80
2022-11-06T06:25:22.703Z,10.30
2022-11-06T06:28:18.783Z,10.10
2022-11-06T06:31:25.874Z,6.60
2022-11-06T06:34:32.777Z,6.20
2022-11-06T06:37:40.113Z,7.00
2022-11-06T06:40:46.941Z,7.40
2022-11-06T06:43:53.926Z,6.90
2022-11-06T06:47:01.213Z,6.70
2022-11-06T06:50:08.197Z,8.90
2022-11-06T06:53:15.039Z,8.90
2022-11-06T06:56:22.220Z,6.20
2022-11-06T06:59:28.827Z,11.30
2022-11-06T07:02:36.089Z,6.60
2022-11-06T07:05:43.432Z,4.80
2022-11-06T07:08:49.953Z,5.40
2022-11-06T07:11:57.295Z,7.50
2022-11-06T07:15:04.552Z,6.40
2022-11-06T07:18:11.276Z,7.80
2022-11-06T07:21:18.746Z,6.20
2022-11-06T07:24:26.076Z,7.10
2022-11-06T07:27:32.587Z,4.70
2022-11-06T07:30:39.927Z,9.50
2022-11-06T07:33:46.546Z,6.00
2022-11-06T07:36:53.696Z,4.70
2022-11-06T07:40:00.736Z,4.40
2022-11-06T07:43:07.227Z,6.90
2022-11-06T07:46:14.358Z,5.50
2022-11-06T07:49:21.461Z,6.70
2022-11-06T07:52:28.049Z,7.40
2022-11-06T07:55:40.808Z,6.30
2022-11-06T07:58:38.430Z,7.70
2022-11-06T08:01:44.996Z,4.20
2022-11-06T08:04:52.130Z,7.60
2022-11-06T08:07:58.949Z,5.50
2022-11-06T08:11:05.784Z,5.90
2022-11-06T08:14:13.051Z,5.50
2022-11-06T08:17:19.999Z,7.40
2022-11-06T08:20:27.046Z,6.60
2022-11-06T08:23:34.643Z,6.50
2022-11-06T08:26:42.095Z,6.10
2022-11-06T08:29:48.926Z,7.20
2022-11-06T08:32:55.746Z,5.70
2022-11-06T08:36:03.118Z,5.40
2022-11-06T08:39:10.117Z,5.80
2022-11-06T08:42:16.613Z,6.90
2022-11-06T08:45:23.883Z,3.70
2022-11-06T08:48:30.349Z,4.70
2022-11-06T08:51:37.502Z,3.90
2022-11-06T08:54:44.828Z,8.10
2022-11-06T08:57:51.534Z,7.20
2022-11-06T09:00:59.334Z,3.60
2022-11-06T09:04:06.465Z,3.10
2022-11-06T09:07:12.932Z,4.20
2022-11-06T09:10:20.019Z,5.40
2022-11-06T09:13:26.648Z,4.20
2022-11-06T09:16:33.494Z,3.90
2022-11-06T09:19:40.695Z,5.20
2022-11-06T09:22:47.106Z,3.20
2022-11-06T09:25:54.187Z,4.30
2022-11-06T09:29:01.213Z,3.40
2022-11-06T09:32:07.695Z,4.40
2022-11-06T09:35:14.802Z,3.00
2022-11-06T09:38:22.003Z,4.30
2022-11-06T09:41:28.432Z,4.70
2022-11-06T09:44:35.670Z,3.80
2022-11-06T09:47:42.422Z,5.00
2022-11-06T09:50:49.417Z,3.00
2022-11-06T09:53:56.409Z,4.50
2022-11-06T09:57:03.154Z,4.70
2022-11-06T10:00:09.957Z,4.90
2022-11-06T10:03:16.973Z,3.20
2022-11-06T10:06:24.327Z,4.10
2022-11-06T10:09:31.206Z,3.90
2022-11-06T10:12:38.124Z,2.90
2022-11-06T10:15:45.237Z,4.10
2022-11-06T10:18:51.868Z,5.90
2022-11-06T10:21:58.650Z,3.20
2022-11-06T10:25:05.829Z,5.70
2022-11-06T10:28:12.621Z,5.10
2022-11-06T10:31:19.762Z,3.40
2022-11-06T10:34:26.963Z,4.10
2022-11-06T10:37:33.332Z,5.50
2022-11-06T10:40:40.573Z,5.80
2022-11-06T10:43:47.483Z,2.00
2022-11-06T10:46:54.423Z,2.10
2022-11-06T10:50:01.398Z,4.30
2022-11-06T10:53:08.315Z,3.00
2022-11-06T10:56:20.877Z,3.50
2022-11-06T10:59:17.287Z,8.50
2022-11-06T11:02:24.127Z,2.90
2022-11-06T11:05:31.388Z,4.20
2022-11-06T11:08:38.290Z,3.20
2022-11-06T11:11:45.201Z,5.20
2022-11-06T11:14:52.121Z,5.30
2022-11-06T11:17:58.622Z,4.50
2022-11-06T11:21:05.863Z,1.80
2022-11-06T11:24:12.821Z,3.50
2022-11-06T11:27:19.545Z,4.60
2022-11-06T11:30:26.595Z,2.10
2022-11-06T11:33:33.386Z,3.80
2022-11-06T11:36:40.116Z,4.60
2022-11-06T11:39:47.189Z,4.80
2022-11-06T11:42:53.605Z,4.00
2022-11-06T11:46:00.449Z,2.80
2022-11-06T11:49:07.758Z,3.30
2022-11-06T11:52:14.269Z,2.70
2022-11-06T11:55:21.555Z,2.60
2022-11-06T11:58:28.314Z,4.90
2022-11-06T12:01:35.314Z,3.80
2022-11-06T12:04:42.303Z,5.50
2022-11-06T12:07:49.056Z,2.00
2022-11-06T12:10:55.875Z,1.60
2022-11-06T12:14:02.874Z,2.60
2022-11-06T12:17:09.901Z,2.60
2022-11-06T12:20:16.887Z,3.50
2022-11-06T12:23:23.848Z,3.30
2022-11-06T12:26:31.135Z,3.40
2022-11-06T12:29:38.097Z,3.40
2022-11-06T12:32:44.808Z,3.20
2022-11-06T12:35:52.071Z,3.60
2022-11-06T12:38:58.628Z,2.10
2022-11-06T12:42:05.782Z,1.90
2022-11-06T12:45:13.082Z,4.20
2022-11-06T12:48:19.542Z,2.70
2022-11-06T12:51:26.986Z,2.40
2022-11-06T12:54:34.401Z,2.10
2022-11-06T12:57:41.565Z,3.90
2022-11-06T13:00:49.576Z,2.50
2022-11-06T13:03:57.035Z,2.70
2022-11-06T13:07:03.769Z,3.20
2022-11-06T13:10:10.597Z,3.90
2022-11-06T13:13:17.446Z,2.00
2022-11-06T13:16:24.846Z,4.00
2022-11-06T13:19:32.764Z,4.50
2022-11-06T13:22:39.909Z,4.90
2022-11-06T13:25:47.321Z,5.10
2022-11-06T13:28:54.395Z,3.20
2022-11-06T13:32:01.393Z,3.30
2022-11-06T13:35:07.969Z,2.40
2022-11-06T13:38:14.758Z,1.40
2022-11-06T13:41:22.476Z,3.40
2022-11-06T13:44:30.046Z,3.40
2022-11-06T13:47:36.574Z,3.60
2022-11-06T13:50:43.507Z,5.50
2022-11-06T13:53:52.916Z,1.80
2022-11-06T13:57:00.887Z,2.50
2022-11-06T14:00:07.730Z,3.70
2022-11-06T14:03:15.141Z,3.00
2022-11-06T14:06:22.042Z,1.40
2022-11-06T14:09:29.373Z,3.50
2022-11-06T14:12:36.096Z,1.70
2022-11-06T14:15:43.361Z,4.10
2022-11-06T14:18:50.524Z,2.50
2022-11-06T14:21:57.406Z,4.20
2022-11-06T14:25:04.740Z,3.80
2022-11-06T14:28:12.261Z,4.10
2022-11-06T14:31:26.188Z,2.30
2022-11-06T14:34:24.800Z,3.90
2022-11-06T14:37:32.033Z,3.10
2022-11-06T14:40:39.144Z,2.50
2022-11-06T14:43:45.697Z,4.70
2022-11-06T14:46:53.464Z,2.40
2022-11-06T14:50:00.571Z,4.50
2022-11-06T14:53:07.702Z,3.20
2022-11-06T14:56:15.160Z,2.90
2022-11-06T14:59:22.356Z,3.80
2022-11-06T15:02:29.563Z,2.00
2022-11-06T15:05:42.218Z,3.40
2022-11-06T15:08:38.437Z,2.30
2022-11-06T15:11:48.136Z,3.40
2022-11-06T15:14:55.177Z,5.70
2022-11-06T15:18:01.822Z,1.90
2022-11-06T15:21:09.070Z,5.70
2022-11-06T15:24:16.270Z,3.50
2022-11-06T15:27:23.111Z,7.00
2022-11-06T15:30:30.501Z,7.90
2022-11-06T15:33:37.392Z,3.30
2022-11-06T15:36:44.276Z,3.30
2022-11-06T15:39:54.803Z,1.40
2022-11-06T15:42:53.785Z,3.70
2022-11-06T15:46:04.288Z,3.60
2022-11-06T15:49:03.048Z,2.40
2022-11-06T15:52:10.433Z,5.50
2022-11-06T15:55:23.639Z,4.10
2022-11-06T15:58:20.139Z,5.40
2022-11-06T16:01:27.683Z,5.90
2022-11-06T16:04:34.387Z,5.00
2022-11-06T16:07:41.998Z,4.30
2022-11-06T16:10:49.334Z,8.90
2022-11-06T16:13:55.914Z,6.70
2022-11-06T16:17:03.307Z,5.60
2022-11-06T16:20:10.393Z,6.00
2022-11-06T16:23:17.069Z,3.70
2022-11-06T16:26:24.274Z,4.10
2022-11-06T16:29:31.317Z,3.60
2022-11-06T16:32:38.564Z,3.90
2022-11-06T16:35:48.897Z,2.60
2022-11-06T16:38:47.770Z,3.40
2022-11-06T16:41:54.772Z,3.10
2022-11-06T16:45:02.372Z,5.80
2022-11-06T16:48:09.415Z,14.30
2022-11-06T16:51:16.424Z,14.40
2022-11-06T16:54:23.651Z,10.20
2022-11-06T16:57:31.052Z,5.10
2022-11-06T17:00:38.031Z,8.90
2022-11-06T17:03:44.845Z,8.20
2022-11-06T17:06:52.315Z,4.30
2022-11-06T17:09:58.904Z,9.70
2022-11-06T17:13:06.360Z,8.70
2022-11-06T17:16:13.816Z,7.70
2022-11-06T17:19:20.646Z,4.40
2022-11-06T17:22:28.059Z,2.70
2022-11-06T17:25:35.005Z,2.60
2022-11-06T17:28:42.084Z,4.50
2022-11-06T17:31:49.330Z,4.40
2022-11-06T17:34:56.224Z,3.60
2022-11-06T17:38:07.195Z,5.20
2022-11-06T17:41:04.281Z,8.50
2022-11-06T17:44:11.100Z,5.90
2022-11-06T17:47:18.114Z,5.40
2022-11-06T17:50:25.225Z,5.70
2022-11-06T17:53:32.545Z,4.80
2022-11-06T17:56:39.601Z,4.90
2022-11-06T17:59:46.586Z,4.20
2022-11-06T18:03:01.656Z,4.30
2022-11-06T18:05:57.306Z,3.90
2022-11-06T18:09:04.846Z,3.30
2022-11-06T18:12:12.328Z,4.80
2022-11-06T18:15:18.989Z,12.00
2022-11-06T18:18:26.357Z,5.00
2022-11-06T18:21:33.731Z,2.40
2022-11-06T18:24:40.652Z,2.40
2022-11-06T18:27:48.215Z,1.70
2022-11-06T18:30:55.657Z,3.10
2022-11-06T18:34:03.189Z,2.40
2022-11-06T18:37:11.126Z,2.30
2022-11-06T18:40:18.131Z,2.80
2022-11-06T18:43:25.127Z,2.30
2022-11-06T18:46:32.820Z,3.00
2022-11-06T18:49:39.909Z,3.10
2022-11-06T18:52:57.971Z,2.70
2022-11-06T18:55:51.388Z,2.50
2022-11-06T18:58:58.358Z,3.50
2022-11-06T19:02:05.828Z,2.60
2022-11-06T19:05:13.174Z,3.30
2022-11-06T19:08:20.477Z,2.80
2022-11-06T19:11:28.015Z,4.40
2022-11-06T19:14:35.041Z,2.60
2022-11-06T19:17:42.333Z,2.10
2022-11-06T19:20:49.593Z,1.80
2022-11-06T19:24:02.662Z,3.10
2022-11-06T19:27:00.256Z,1.80
2022-11-06T19:30:07.216Z,3.70
2022-11-06T19:33:15.002Z,3.30
2022-11-06T19:36:22.119Z,4.80
2022-11-06T19:39:29.158Z,2.30
2022-11-06T19:42:36.639Z,2.60
2022-11-06T19:45:43.416Z,3.40
2022-11-06T19:48:50.688Z,3.60
2022-11-06T19:51:57.995Z,3.90
2022-11-06T19:55:25.010Z,2.90
2022-11-06T19:58:06.562Z,2.30
2022-11-06T20:01:13.931Z,2.60
2022-11-06T20:04:20.512Z,2.80
2022-11-06T20:07:27.722Z,2.60
2022-11-06T20:10:34.683Z,2.90
2022-11-06T20:13:41.567Z,3.40
2022-11-06T20:16:48.825Z,3.00
2022-11-06T20:19:55.678Z,3.90
2022-11-06T20:23:02.586Z,4.40
2022-11-06T20:26:09.886Z,4.20
2022-11-06T20:29:16.501Z,4.50
2022-11-06T20:32:23.368Z,2.70
2022-11-06T20:35:30.368Z,3.50
2022-11-06T20:38:37.222Z,3.30
2022-11-06T20:41:44.638Z,2.70
2022-11-06T20:44:51.453Z,2.40
2022-11-06T20:47:58.519Z,2.60
2022-11-06T20:51:05.815Z,5.30
2022-11-06T20:54:12.828Z,3.40
2022-11-06T20:57:20.313Z,4.80
2022-11-06T21:00:28.486Z,3.00
2022-11-06T21:03:35.464Z,3.20
2022-11-06T21:06:42.474Z,3.40
2022-11-06T21:09:49.292Z,3.30
2022-11-06T21:12:56.393Z,3.80
2022-11-06T21:16:03.607Z,4.10
2022-11-06T21:19:10.518Z,4.40
2022-11-06T21:22:17.473Z,4.90
2022-11-06T21:25:24.366Z,4.80
2022-11-06T21:28:31.207Z,4.30
2022-11-06T21:31:38.280Z,7.00
2022-11-06T21:34:45.869Z,4.60
2022-11-06T21:37:53.039Z,5.70
2022-11-06T21:40:59.893Z,4.50
2022-11-06T21:44:06.736Z,4.30
2022-11-06T21:47:13.991Z,4.60
2022-11-06T21:50:29.560Z,4.70
2022-11-06T21:53:25.133Z,2.70
2022-11-06T21:56:32.232Z,4.80
2022-11-06T21:59:41.738Z,3.20
2022-11-06T22:02:49.265Z,4.10
2022-11-06T22:05:56.015Z,3.50
2022-11-06T22:09:02.997Z,4.60
2022-11-06T22:12:10.135Z,3.30
2022-11-06T22:15:16.657Z,4.70
2022-11-06T22:18:23.389Z,4.50
2022-11-06T22:21:30.700Z,4.30
2022-11-06T22:24:37.248Z,4.10
2022-11-06T22:27:44.472Z,3.70
2022-11-06T22:30:51.686Z,3.30
2022-11-06T22:33:58.141Z,4.20
2022-11-06T22:37:05.332Z,3.50
2022-11-06T22:40:12.541Z,3.50
2022-11-06T22:43:19.123Z,3.00
2022-11-06T22:46:26.585Z,4.40
2022-11-06T22:49:33.671Z,3.90
2022-11-06T22:52:40.623Z,4.00
2022-11-06T22:55:47.883Z,3.50
2022-11-06T22:58:54.703Z,4.00
2022-11-06T23:02:01.540Z,3.50
2022-11-06T23:05:08.768Z,4.60
2022-11-06T23:08:15.179Z,4.30
2022-11-06T23:11:22.121Z,5.50
2022-11-06T23:14:29.050Z,3.70
2022-11-06T23:17:36.010Z,4.00
2022-11-06T23:20:43.106Z,3.70
2022-11-06T23:23:50.011Z,3.80
2022-11-06T23:26:56.920Z,3.50
2022-11-06T23:30:04.302Z,4.10
2022-11-06T23:33:11.368Z,3.90
2022-11-06T23:36:18.302Z,3.80
2022-11-06T23:39:25.212Z,5.40
2022-11-06T23:42:32.545Z,4.40
2022-11-06T23:45:39.425Z,4.40
2022-11-06T23:48:46.263Z,4.00
2022-11-06T23:51:53.584Z,4.10
2022-11-06T23:55:00.539Z,4.20
2022-11-06T23:58:07.426Z,5.90
